Time;durP1;ratioP1;P1;durP2;ratioP2;P2;SDS_P1;SDS_P2;PMS_P1;PMS_P2;Temp;Humidity;BMP_temperature;BMP_pressure;BME280_temperature;BME280_humidity;BME280_pressure;Samples;Min_cycle;Max_cycle;Signal;HPM_P1;HPM_P2
2023/07/06 00:00:48;;;;;;;15.48;10.90;;;11.90;99.90;;;;;;7384825;19;20037;-62
2023/07/06 00:03:14;;;;;;;16.08;11.32;;;11.80;99.90;;;;;;7384987;19;20437;-62
2023/07/06 00:05:45;;;;;;;16.80;11.73;;;11.80;99.90;;;;;;7381220;19;20027;-62
2023/07/06 00:08:12;;;;;;;14.90;11.43;;;11.80;99.90;;;;;;7381512;19;20121;-62
2023/07/06 00:10:39;;;;;;;17.67;11.35;;;11.70;99.90;;;;;;7379353;19;20482;-63
2023/07/06 00:13:06;;;;;;;19.33;12.80;;;11.70;99.90;;;;;;7382502;19;20018;-63
2023/07/06 00:15:36;;;;;;;17.48;12.57;;;11.70;99.90;;;;;;7379544;19;20054;-63
2023/07/06 00:18:03;;;;;;;18.35;11.70;;;11.70;99.90;;;;;;7378318;19;20386;-62
2023/07/06 00:20:37;;;;;;;14.13;12.45;;;11.70;99.90;;;;;;7379273;19;20174;-62
2023/07/06 00:23:05;;;;;;;14.82;12.38;;;11.70;99.90;;;;;;7373595;19;20587;-62
2023/07/06 00:25:33;;;;;;;15.35;11.68;;;11.70;99.90;;;;;;7377524;19;20022;-64
2023/07/06 00:28:03;;;;;;;18.45;12.05;;;11.70;99.90;;;;;;7379481;19;20506;-62
2023/07/06 00:33:13;;;;;;;13.73;12.20;;;11.70;99.90;;;;;;7378373;19;20034;-62
2023/07/06 00:35:41;;;;;;;15.13;12.35;;;11.80;99.90;;;;;;7380942;19;20022;-62
2023/07/06 00:38:14;;;;;;;14.45;12.25;;;11.80;99.90;;;;;;7379718;19;20022;-62
2023/07/06 00:40:43;;;;;;;14.52;11.68;;;11.80;99.90;;;;;;7377839;19;20025;-62
2023/07/06 00:43:15;;;;;;;20.50;12.30;;;11.80;99.90;;;;;;7377929;19;20070;-62
2023/07/06 00:45:44;;;;;;;15.95;12.70;;;11.80;99.90;;;;;;7376737;19;20022;-63
2023/07/06 00:48:34;;;;;;;17.80;13.18;;;11.80;99.90;;;;;;7377933;19;20021;-62
2023/07/06 00:51:17;;;;;;;15.52;12.07;;;11.80;99.90;;;;;;7374221;19;20351;-62
2023/07/06 00:54:04;;;;;;;18.10;12.15;;;11.80;99.90;;;;;;7379620;19;20504;-63
2023/07/06 00:56:37;;;;;;;13.52;11.13;;;11.80;99.90;;;;;;7375301;19;20070;-63
2023/07/06 00:59:09;;;;;;;14.70;11.93;;;11.80;99.90;;;;;;7378817;19;20026;-62
2023/07/06 01:01:43;;;;;;;15.82;12.25;;;11.80;99.90;;;;;;7380096;19;20102;-69
2023/07/06 01:04:12;;;;;;;15.75;12.02;;;11.80;99.90;;;;;;7379642;19;20018;-70
2023/07/06 01:06:47;;;;;;;14.02;10.45;;;11.70;99.90;;;;;;7380174;19;20041;-69
2023/07/06 01:09:17;;;;;;;13.30;11.18;;;11.70;99.90;;;;;;7379909;19;20583;-62
2023/07/06 01:11:44;;;;;;;12.82;10.43;;;11.70;99.90;;;;;;7374236;19;20034;-62
2023/07/06 01:14:13;;;;;;;12.75;10.40;;;11.70;99.90;;;;;;7382676;19;20022;-63
2023/07/06 01:16:43;;;;;;;16.90;9.73;;;11.60;99.90;;;;;;7380589;19;20768;-68
2023/07/06 01:19:52;;;;;;;11.60;10.13;;;11.60;99.90;;;;;;7363304;19;20010;-69
2023/07/06 01:22:49;;;;;;;11.30;10.00;;;11.60;99.90;;;;;;7368329;19;20546;-69
2023/07/06 01:25:40;;;;;;;14.75;10.10;;;11.50;99.90;;;;;;7366349;19;20018;-62
2023/07/06 01:28:10;;;;;;;12.13;10.60;;;11.50;99.90;;;;;;7378629;19;20370;-69
2023/07/06 01:31:02;;;;;;;13.57;9.63;;;11.50;99.90;;;;;;7375668;19;20054;-69
2023/07/06 01:33:36;;;;;;;13.27;10.07;;;11.40;99.90;;;;;;7378439;19;20022;-69
2023/07/06 01:36:14;;;;;;;13.13;10.63;;;11.40;99.90;;;;;;7378410;19;20014;-68
2023/07/06 01:38:41;;;;;;;12.85;10.02;;;11.40;99.90;;;;;;7374496;19;20045;-71
2023/07/06 01:41:10;;;;;;;12.18;10.77;;;11.40;99.90;;;;;;7373277;19;20029;-69
2023/07/06 01:43:37;;;;;;;13.88;10.63;;;11.40;99.90;;;;;;7375690;19;20512;-69
2023/07/06 01:46:03;;;;;;;11.40;10.07;;;11.40;99.90;;;;;;7376536;19;20014;-69
2023/07/06 01:48:30;;;;;;;14.32;10.02;;;11.40;99.90;;;;;;7378369;19;20105;-69
2023/07/06 01:51:20;;;;;;;12.77;10.07;;;11.30;99.90;;;;;;7376813;19;20634;-69
2023/07/06 01:54:05;;;;;;;12.77;10.73;;;11.30;99.90;;;;;;7377582;19;20026;-69
2023/07/06 01:56:44;;;;;;;13.88;11.00;;;11.30;99.90;;;;;;7377458;19;20011;-69
2023/07/06 01:59:17;;;;;;;12.00;9.57;;;11.30;99.90;;;;;;7379080;19;20018;-69
2023/07/06 02:01:48;;;;;;;18.88;10.48;;;11.30;99.90;;;;;;7379445;19;20029;-69
2023/07/06 02:04:20;;;;;;;11.70;10.30;;;11.30;99.90;;;;;;7381415;19;20019;-69
2023/07/06 02:06:53;;;;;;;12.55;9.65;;;11.30;99.90;;;;;;7380292;19;20105;-69
2023/07/06 02:09:20;;;;;;;12.35;9.88;;;11.20;99.90;;;;;;7378920;19;20549;-69
2023/07/06 02:11:46;;;;;;;12.35;10.48;;;11.20;99.90;;;;;;7381065;19;20018;-69
2023/07/06 02:14:14;;;;;;;14.55;10.55;;;11.10;99.90;;;;;;7379289;19;20030;-69
2023/07/06 02:16:40;;;;;;;12.80;10.57;;;11.20;99.90;;;;;;7379839;19;20584;-69
2023/07/06 02:19:07;;;;;;;15.48;11.35;;;11.10;99.90;;;;;;7379939;19;20019;-69
2023/07/06 02:21:33;;;;;;;14.18;11.38;;;11.10;99.90;;;;;;7383338;19;20022;-69
2023/07/06 02:24:03;;;;;;;15.23;11.05;;;11.10;99.90;;;;;;7379443;19;20038;-62
2023/07/06 02:26:30;;;;;;;14.35;11.65;;;11.20;99.90;;;;;;7377275;19;20021;-62
2023/07/06 02:28:57;;;;;;;15.48;11.20;;;11.20;99.90;;;;;;7375173;19;20023;-62
2023/07/06 02:31:24;;;;;;;18.38;12.48;;;11.10;99.90;;;;;;7370820;19;20018;-62
2023/07/06 02:33:52;;;;;;;15.45;12.63;;;11.20;99.90;;;;;;7375695;19;20038;-62
2023/07/06 02:36:19;;;;;;;16.10;12.23;;;11.20;99.90;;;;;;7379771;19;20018;-61
2023/07/06 02:38:46;;;;;;;15.27;12.00;;;11.20;99.90;;;;;;7378554;19;20018;-68
2023/07/06 02:41:14;;;;;;;15.43;13.35;;;11.20;99.90;;;;;;7377346;19;20019;-68
2023/07/06 02:43:41;;;;;;;14.73;11.60;;;11.10;99.90;;;;;;7381285;19;20025;-68
2023/07/06 02:46:07;;;;;;;16.10;12.57;;;11.10;99.90;;;;;;7386202;19;20023;-68
2023/07/06 02:48:34;;;;;;;16.08;11.85;;;11.10;99.90;;;;;;7386143;19;20604;-62
2023/07/06 02:51:01;;;;;;;16.98;11.73;;;11.10;99.90;;;;;;7379159;19;20725;-62
2023/07/06 02:53:27;;;;;;;16.95;12.00;;;11.10;99.90;;;;;;7382078;19;20014;-62
2023/07/06 02:55:53;;;;;;;17.45;13.57;;;11.10;99.90;;;;;;7385325;19;20018;-62
2023/07/06 02:58:19;;;;;;;23.38;14.77;;;11.10;99.90;;;;;;7381419;19;20037;-62
2023/07/06 03:00:47;;;;;;;19.83;13.73;;;11.20;99.90;;;;;;7378654;19;20894;-62
2023/07/06 03:03:14;;;;;;;17.85;14.10;;;11.20;99.90;;;;;;7379329;19;20022;-62
2023/07/06 03:05:44;;;;;;;17.80;13.18;;;11.10;99.90;;;;;;7382127;19;20614;-62
2023/07/06 03:08:10;;;;;;;16.85;14.02;;;11.10;99.90;;;;;;7381650;19;20699;-62
2023/07/06 03:10:38;;;;;;;16.17;14.45;;;11.20;99.90;;;;;;7381675;19;20019;-62
2023/07/06 03:13:06;;;;;;;19.10;14.38;;;11.20;99.90;;;;;;7383115;19;20981;-62
2023/07/06 03:15:32;;;;;;;20.58;14.00;;;11.10;99.90;;;;;;7382883;19;20026;-61
2023/07/06 03:17:58;;;;;;;19.13;13.85;;;11.10;99.90;;;;;;7385445;19;20018;-62
2023/07/06 03:20:27;;;;;;;18.02;13.95;;;11.10;99.90;;;;;;7383174;19;20018;-68
2023/07/06 03:23:14;;;;;;;16.40;13.40;;;11.10;99.90;;;;;;7383369;19;20044;-68
2023/07/06 03:26:00;;;;;;;17.25;12.85;;;11.00;99.90;;;;;;7383148;19;20018;-68
2023/07/06 03:28:28;;;;;;;20.05;14.20;;;11.00;99.90;;;;;;7386963;19;20018;-69
2023/07/06 03:30:57;;;;;;;17.67;14.00;;;11.00;99.90;;;;;;7380139;19;20033;-70
2023/07/06 03:33:24;;;;;;;21.00;14.15;;;11.00;99.90;;;;;;7386137;19;20046;-69
2023/07/06 03:35:55;;;;;;;18.80;14.05;;;11.00;99.90;;;;;;7384785;19;20031;-69
2023/07/06 03:38:21;;;;;;;18.55;15.20;;;11.00;99.90;;;;;;7382187;19;20018;-69
2023/07/06 03:40:49;;;;;;;19.80;14.88;;;11.00;99.90;;;;;;7383907;19;20050;-69
2023/07/06 03:43:16;;;;;;;19.92;14.82;;;11.00;99.90;;;;;;7385212;19;20011;-69
2023/07/06 03:45:46;;;;;;;20.67;15.73;;;11.10;99.90;;;;;;7379774;19;20014;-66
2023/07/06 03:48:12;;;;;;;19.38;14.90;;;11.10;99.90;;;;;;7385031;19;20018;-67
2023/07/06 03:50:39;;;;;;;23.73;16.98;;;11.10;99.90;;;;;;7376192;19;20078;-67
2023/07/06 03:53:05;;;;;;;18.17;15.35;;;11.10;99.90;;;;;;7383705;19;20022;-67
2023/07/06 03:55:31;;;;;;;25.48;16.85;;;11.20;99.90;;;;;;7379806;19;20042;-61
2023/07/06 03:58:00;;;;;;;23.20;16.90;;;11.20;99.90;;;;;;7380615;19;20114;-61
2023/07/06 04:00:28;;;;;;;24.40;17.08;;;11.30;99.90;;;;;;7377284;19;20390;-61
2023/07/06 04:03:03;;;;;;;24.52;17.15;;;11.30;99.90;;;;;;7377721;19;20027;-61
2023/07/06 04:05:36;;;;;;;25.23;16.23;;;11.40;99.90;;;;;;7381037;19;20022;-61
2023/07/06 04:08:05;;;;;;;21.95;15.07;;;11.40;99.90;;;;;;7379270;19;20022;-67
2023/07/06 04:10:33;;;;;;;26.23;17.55;;;11.50;99.90;;;;;;7381752;19;20014;-67
2023/07/06 04:13:00;;;;;;;21.75;16.83;;;11.50;99.90;;;;;;7379262;19;20018;-61
2023/07/06 04:15:26;;;;;;;22.67;15.40;;;11.60;99.90;;;;;;7382642;19;20050;-61
2023/07/06 04:17:53;;;;;;;24.50;17.38;;;11.70;99.90;;;;;;7381488;19;20074;-66
2023/07/06 04:20:25;;;;;;;21.88;16.10;;;11.70;99.90;;;;;;7381641;19;20078;-61
2023/07/06 04:22:55;;;;;;;;;;;11.80;99.90;;;;;;7378521;19;20018;-61
2023/07/06 04:25:32;;;;;;;25.45;17.85;;;11.80;99.90;;;;;;7380281;19;19947;-67
2023/07/06 04:28:11;;;;;;;29.38;15.85;;;11.90;99.90;;;;;;7377995;19;20489;-61
2023/07/06 04:30:41;;;;;;;22.40;15.80;;;12.00;99.90;;;;;;7381969;19;20430;-67
2023/07/06 04:33:17;;;;;;;19.98;15.27;;;12.00;99.90;;;;;;7379258;19;20025;-66
2023/07/06 04:35:43;;;;;;;22.45;15.70;;;12.10;99.90;;;;;;7381184;19;20024;-67
2023/07/06 04:38:10;;;;;;;22.98;14.65;;;12.20;99.90;;;;;;7377950;19;20011;-67
2023/07/06 04:40:43;;;;;;;21.27;15.30;;;12.20;99.90;;;;;;7382972;19;20041;-67
2023/07/06 04:43:11;;;;;;;21.75;16.38;;;12.30;99.90;;;;;;7380395;19;20387;-67
2023/07/06 04:45:37;;;;;;;22.90;16.13;;;12.40;99.90;;;;;;7382314;19;20086;-67
2023/07/06 04:48:07;;;;;;;20.35;14.50;;;12.40;99.90;;;;;;7379386;19;20405;-67
2023/07/06 04:50:37;;;;;;;20.90;14.77;;;12.40;99.90;;;;;;7380820;19;20038;-67
2023/07/06 04:53:07;;;;;;;17.77;13.60;;;12.40;99.90;;;;;;7378347;19;20018;-61
2023/07/06 04:55:34;;;;;;;22.88;14.00;;;12.50;99.90;;;;;;7377296;19;20058;-62
2023/07/06 04:58:01;;;;;;;25.73;14.93;;;12.50;99.90;;;;;;7377841;19;20430;-61
2023/07/06 05:00:30;;;;;;;23.70;15.15;;;12.50;99.90;;;;;;7375746;19;20057;-61
2023/07/06 05:03:00;;;;;;;21.73;14.20;;;12.60;99.90;;;;;;7377330;19;20086;-60
2023/07/06 05:05:31;;;;;;;18.50;13.82;;;12.70;99.90;;;;;;7376610;19;20019;-61
2023/07/06 05:07:58;;;;;;;21.42;14.73;;;12.80;99.90;;;;;;7377899;19;20018;-61
2023/07/06 05:10:25;;;;;;;19.80;13.82;;;12.80;99.90;;;;;;7370523;19;20055;-61
2023/07/06 05:12:52;;;;;;;19.83;13.68;;;12.90;99.90;;;;;;7376707;19;20050;-61
2023/07/06 05:15:19;;;;;;;16.92;12.65;;;13.20;99.90;;;;;;7375646;19;20015;-61
2023/07/06 05:17:45;;;;;;;14.32;11.43;;;13.50;99.90;;;;;;7376082;19;20022;-61
2023/07/06 05:20:14;;;;;;;14.27;11.07;;;13.90;99.90;;;;;;7380001;19;20014;-68
2023/07/06 05:22:47;;;;;;;18.83;11.05;;;14.20;99.90;;;;;;7378700;19;20390;-68
2023/07/06 05:25:13;;;;;;;13.98;11.02;;;14.40;99.90;;;;;;7378807;19;20572;-67
2023/07/06 05:27:39;;;;;;;16.42;10.73;;;14.70;99.90;;;;;;7378062;19;20442;-68
2023/07/06 05:30:07;;;;;;;11.32;8.93;;;14.90;99.90;;;;;;7377650;19;20110;-68
2023/07/06 05:32:34;;;;;;;14.20;9.68;;;15.00;99.90;;;;;;7376957;19;20029;-68
2023/07/06 05:35:00;;;;;;;12.82;9.65;;;15.20;99.90;;;;;;7379541;19;20477;-67
2023/07/06 05:37:26;;;;;;;11.23;9.30;;;15.30;99.90;;;;;;7373932;19;20461;-68
2023/07/06 05:39:53;;;;;;;14.57;9.32;;;15.40;99.90;;;;;;7378794;19;20025;-68
2023/07/06 05:42:19;;;;;;;11.95;9.52;;;15.60;99.90;;;;;;7374944;19;20054;-62
2023/07/06 05:44:46;;;;;;;15.57;9.55;;;15.90;99.90;;;;;;7374872;19;20042;-62
2023/07/06 05:47:13;;;;;;;18.23;9.65;;;16.00;99.90;;;;;;7367785;19;20755;-62
2023/07/06 05:49:39;;;;;;;17.08;9.30;;;16.10;99.90;;;;;;7369237;19;20018;-64
2023/07/06 05:52:06;;;;;;;13.25;9.13;;;16.30;99.90;;;;;;7367875;19;20050;-62
2023/07/06 05:54:33;;;;;;;12.18;8.65;;;16.30;99.90;;;;;;7372007;19;20019;-62
2023/07/06 05:57:02;;;;;;;13.63;9.00;;;16.60;99.90;;;;;;7372897;19;20537;-62
2023/07/06 05:59:30;;;;;;;14.35;8.73;;;16.70;99.90;;;;;;7375003;19;20022;-70
2023/07/06 06:01:58;;;;;;;12.77;8.52;;;16.60;99.90;;;;;;7370750;19;20862;-69
2023/07/06 06:04:25;;;;;;;13.95;8.90;;;16.90;99.90;;;;;;7378459;19;20374;-70
2023/07/06 06:06:54;;;;;;;14.10;8.43;;;16.90;99.90;;;;;;7374285;19;20022;-62
2023/07/06 06:09:22;;;;;;;16.55;8.45;;;17.10;99.90;;;;;;7378232;19;20462;-69
2023/07/06 06:11:49;;;;;;;12.40;7.88;;;17.20;99.90;;;;;;7375161;19;20573;-70
2023/07/06 06:14:16;;;;;;;13.88;7.63;;;17.30;99.90;;;;;;7376442;19;20022;-70
2023/07/06 06:16:42;;;;;;;15.50;8.20;;;17.20;99.90;;;;;;7379798;19;20026;-68
2023/07/06 06:19:09;;;;;;;10.80;7.63;;;17.20;99.90;;;;;;7376224;19;20018;-67
2023/07/06 06:21:36;;;;;;;13.32;7.72;;;17.20;99.90;;;;;;7382390;19;20684;-68
2023/07/06 06:24:03;;;;;;;11.63;7.28;;;17.20;99.90;;;;;;7385390;19;20114;-69
2023/07/06 06:26:30;;;;;;;14.55;8.18;;;17.30;99.90;;;;;;7386648;19;20072;-69
2023/07/06 06:28:57;;;;;;;13.55;7.90;;;17.30;99.90;;;;;;7386932;19;20532;-69
2023/07/06 06:31:24;;;;;;;12.52;7.63;;;17.30;99.90;;;;;;7386652;19;20014;-69
2023/07/06 06:33:51;;;;;;;15.55;8.75;;;17.50;99.90;;;;;;7387436;19;20698;-68
2023/07/06 06:36:18;;;;;;;11.50;8.02;;;17.70;99.90;;;;;;7378344;19;20097;-63
2023/07/06 06:38:44;;;;;;;14.40;7.50;;;17.90;99.90;;;;;;7377458;19;20608;-63
2023/07/06 06:41:11;;;;;;;14.90;7.93;;;17.60;99.90;;;;;;7377647;19;20030;-63
2023/07/06 06:43:38;;;;;;;14.43;7.75;;;17.60;99.90;;;;;;7381169;19;20410;-64
2023/07/06 06:46:06;;;;;;;14.27;7.65;;;17.50;99.90;;;;;;7380343;19;20795;-64
2023/07/06 06:48:33;;;;;;;14.15;9.10;;;17.50;99.90;;;;;;7382692;19;20448;-63
2023/07/06 06:51:00;;;;;;;12.95;8.73;;;17.30;99.90;;;;;;7376109;19;20022;-62
2023/07/06 06:53:27;;;;;;;16.02;8.68;;;17.30;99.90;;;;;;7381258;19;20023;-69
2023/07/06 06:55:54;;;;;;;13.30;8.65;;;17.50;99.90;;;;;;7384204;19;20106;-70
2023/07/06 06:58:21;;;;;;;18.00;8.27;;;17.60;99.90;;;;;;7380684;19;20019;-70
2023/07/06 07:00:48;;;;;;;14.98;8.25;;;17.80;99.90;;;;;;7383456;19;20390;-70
2023/07/06 07:03:20;;;;;;;15.32;8.60;;;18.30;99.90;;;;;;7381424;19;20674;-63
2023/07/06 07:05:46;;;;;;;15.52;7.63;;;18.50;99.90;;;;;;7380326;19;20093;-63
2023/07/06 07:08:12;;;;;;;14.52;8.02;;;18.60;99.90;;;;;;7384112;19;20535;-68
2023/07/06 07:10:38;;;;;;;13.80;8.07;;;18.60;99.90;;;;;;7380713;19;20011;-65
2023/07/06 07:13:05;;;;;;;11.73;7.32;;;18.50;99.90;;;;;;7381271;19;20457;-70
2023/07/06 07:15:31;;;;;;;12.57;8.18;;;18.40;99.90;;;;;;7384848;19;20760;-70
2023/07/06 07:17:59;;;;;;;15.77;8.30;;;18.70;99.90;;;;;;7383524;19;20021;-70
2023/07/06 07:20:26;;;;;;;14.02;7.90;;;19.40;99.90;;;;;;7382422;19;20014;-70
2023/07/06 07:22:54;;;;;;;13.68;7.53;;;19.50;99.90;;;;;;7377220;19;20513;-70
2023/07/06 07:25:20;;;;;;;11.57;7.38;;;19.60;99.90;;;;;;7379994;19;20533;-70
2023/07/06 07:27:47;;;;;;;20.90;8.63;;;19.60;99.90;;;;;;7381478;19;20452;-63
2023/07/06 07:30:13;;;;;;;16.67;7.88;;;19.20;99.90;;;;;;7379873;19;20500;-70
2023/07/06 07:32:41;;;;;;;15.63;7.90;;;19.00;99.90;;;;;;7381023;19;20022;-70
2023/07/06 07:35:09;;;;;;;13.98;8.07;;;19.00;99.90;;;;;;7382173;19;20068;-63
2023/07/06 07:37:35;;;;;;;14.30;8.50;;;19.00;99.90;;;;;;7378323;19;20019;-63
2023/07/06 07:40:01;;;;;;;15.35;8.80;;;18.70;99.90;;;;;;7379258;19;20919;-63
2023/07/06 07:42:30;;;;;;;15.45;8.32;;;18.80;99.90;;;;;;7379884;19;20062;-63
2023/07/06 07:44:57;;;;;;;13.68;8.63;;;18.70;99.90;;;;;;7381051;19;20022;-63
2023/07/06 07:47:24;;;;;;;16.05;9.93;;;18.60;99.90;;;;;;7379996;19;20118;-63
2023/07/06 07:49:50;;;;;;;15.07;9.18;;;18.60;99.90;;;;;;7380272;19;20469;-63
2023/07/06 07:52:17;;;;;;;15.73;8.27;;;19.10;99.90;;;;;;7380363;19;20860;-62
2023/07/06 07:54:43;;;;;;;13.98;7.75;;;19.80;99.90;;;;;;7379447;19;20018;-63
2023/07/06 07:57:10;;;;;;;11.63;6.85;;;20.00;99.90;;;;;;7379583;19;20022;-63
2023/07/06 07:59:36;;;;;;;12.48;7.25;;;20.00;99.90;;;;;;7381149;19;20022;-62
2023/07/06 08:02:03;;;;;;;12.60;8.40;;;19.80;99.90;;;;;;7378075;19;20064;-62
2023/07/06 08:04:32;;;;;;;16.90;8.07;;;20.00;99.90;;;;;;7380264;19;20023;-63
2023/07/06 08:06:58;;;;;;;14.80;7.85;;;20.40;99.90;;;;;;7378505;19;20014;-63
2023/07/06 08:09:26;;;;;;;12.15;7.95;;;20.60;99.90;;;;;;7381994;19;20188;-63
2023/07/06 08:11:53;;;;;;;12.48;6.63;;;20.80;99.90;;;;;;7378129;19;20784;-63
2023/07/06 08:14:38;;;;;;;13.65;7.55;;;21.10;99.90;;;;;;7377736;19;20019;-63
2023/07/06 08:17:05;;;;;;;14.18;7.30;;;21.20;99.90;;;;;;7378992;19;20018;-65
2023/07/06 08:19:36;;;;;;;11.30;5.50;;;21.30;99.90;;;;;;7379796;19;20011;-64
2023/07/06 08:22:03;;;;;;;;;;;21.30;99.90;;;;;;7377028;19;20023;-63
2023/07/06 08:24:29;;;;;;;12.13;5.95;;;21.40;99.90;;;;;;7380364;19;19942;-63
2023/07/06 08:26:57;;;;;;;9.90;5.88;;;21.40;99.90;;;;;;7381746;19;20045;-63
2023/07/06 08:29:23;;;;;;;10.93;5.78;;;21.80;99.90;;;;;;7379702;19;20018;-63
2023/07/06 08:31:50;;;;;;;11.88;4.10;;;22.00;99.90;;;;;;7379266;19;20049;-71
2023/07/06 08:34:16;;;;;;;9.10;5.03;;;22.50;99.90;;;;;;7378792;19;20006;-71
2023/07/06 08:36:44;;;;;;;12.52;4.65;;;22.30;99.90;;;;;;7376179;19;20026;-71
2023/07/06 08:39:11;;;;;;;9.02;3.80;;;21.80;99.90;;;;;;7376221;19;20026;-71
2023/07/06 08:41:43;;;;;;;11.13;3.33;;;21.90;99.90;;;;;;7378006;19;20819;-68
2023/07/06 08:44:12;;;;;;;11.07;4.00;;;22.30;99.90;;;;;;7378644;19;20029;-71
2023/07/06 08:46:48;;;;;;;9.18;3.67;;;22.50;99.90;;;;;;7378041;19;20485;-65
2023/07/06 08:49:33;;;;;;;7.47;3.90;;;22.30;99.90;;;;;;7379915;19;20025;-71
2023/07/06 08:52:05;;;;;;;6.70;2.60;;;22.50;99.90;;;;;;7378582;19;20030;-70
2023/07/06 08:54:36;;;;;;;7.78;3.00;;;22.20;99.90;;;;;;7376735;19;20030;-70
2023/07/06 08:57:15;;;;;;;9.13;4.47;;;22.60;99.90;;;;;;7378948;19;20025;-68
2023/07/06 08:59:45;;;;;;;6.78;4.15;;;23.00;99.90;;;;;;7378270;19;20014;-69
2023/07/06 09:02:25;;;;;;;9.13;3.25;;;23.40;99.90;;;;;;7378343;19;20030;-62
2023/07/06 09:04:54;;;;;;;7.03;3.03;;;23.20;99.90;;;;;;7376889;19;20019;-62
2023/07/06 09:07:34;;;;;;;7.30;3.00;;;23.30;99.90;;;;;;7378329;19;20010;-69
2023/07/06 09:10:08;;;;;;;6.90;2.78;;;23.60;99.90;;;;;;7377196;19;20022;-69
2023/07/06 09:12:39;;;;;;;5.05;1.98;;;23.50;99.90;;;;;;7376396;19;20019;-69
2023/07/06 09:15:08;;;;;;;9.05;4.75;;;23.50;99.90;;;;;;7377086;19;20018;-72
2023/07/06 09:17:45;;;;;;;13.73;11.63;;;23.40;99.90;;;;;;7382323;19;20055;-70
2023/07/06 09:20:14;;;;;;;8.02;5.15;;;23.90;99.90;;;;;;7381072;19;20505;-71
2023/07/06 09:22:42;;;;;;;4.70;2.97;;;23.90;99.90;;;;;;7378727;19;21160;-70
2023/07/06 09:25:26;;;;;;;10.25;6.60;;;23.90;99.90;;;;;;7379084;19;20022;-72
2023/07/06 09:27:56;;;;;;;16.05;12.25;;;23.70;99.00;;;;;;7378339;19;20014;-64
2023/07/06 09:30:30;;;;;;;28.20;25.30;;;23.60;98.90;;;;;;7379066;19;20006;-69
2023/07/06 09:33:05;;;;;;;11.20;6.82;;;23.70;94.50;;;;;;7376098;19;20052;-72
2023/07/06 09:35:35;;;;;;;7.95;4.03;;;23.40;95.60;;;;;;7374312;19;20037;-72
2023/07/06 09:38:04;;;;;;;9.02;3.03;;;23.20;96.60;;;;;;7377632;19;20014;-72
2023/07/06 09:40:30;;;;;;;8.07;4.78;;;23.00;96.60;;;;;;7381982;19;20085;-71
2023/07/06 09:42:57;;;;;;;10.70;7.28;;;23.10;99.50;;;;;;7381647;19;20371;-71
2023/07/06 09:45:30;;;;;;;7.47;4.63;;;23.50;98.50;;;;;;7374193;19;20612;-67
2023/07/06 09:48:03;;;;;;;6.40;4.20;;;23.60;98.00;;;;;;7376536;19;20022;-67
2023/07/06 09:50:44;;;;;;;6.32;2.60;;;23.10;97.30;;;;;;7376390;19;20931;-67
2023/07/06 09:53:20;;;;;;;6.20;2.47;;;22.90;94.20;;;;;;7372594;19;20055;-67
2023/07/06 09:55:46;;;;;;;5.00;2.47;;;22.90;97.40;;;;;;7374680;19;20025;-73
2023/07/06 09:58:20;;;;;;;5.50;2.83;;;22.70;98.90;;;;;;7375401;19;20699;-70
2023/07/06 10:00:54;;;;;;;9.45;6.05;;;22.40;99.20;;;;;;7379141;19;20019;-71
2023/07/06 10:03:57;;;;;;;8.57;3.90;;;22.10;98.00;;;;;;7379618;19;20018;-71
2023/07/06 10:06:47;;;;;;;7.13;3.55;;;22.10;98.80;;;;;;7375562;19;20018;-66
2023/07/06 10:09:25;;;;;;;8.82;5.10;;;22.00;99.90;;;;;;7376380;19;20732;-67
2023/07/06 10:11:55;;;;;;;8.43;5.20;;;21.80;99.90;;;;;;7379166;19;20098;-67
2023/07/06 10:14:28;;;;;;;11.80;6.10;;;21.50;99.90;;;;;;7372291;19;20054;-70
2023/07/06 10:16:56;;;;;;;9.20;5.45;;;21.30;99.90;;;;;;7379414;19;20374;-70
2023/07/06 10:19:46;;;;;;;6.07;3.30;;;21.20;99.90;;;;;;7377721;19;20046;-69
2023/07/06 10:22:41;;;;;;;11.73;3.72;;;21.30;99.90;;;;;;7378494;19;20025;-68
2023/07/06 10:25:33;;;;;;;10.05;4.47;;;21.20;99.90;;;;;;7377557;19;20097;-66
2023/07/06 10:28:25;;;;;;;6.32;4.50;;;21.30;99.90;;;;;;7378703;19;20099;-72
2023/07/06 10:30:56;;;;;;;6.40;3.92;;;22.40;99.90;;;;;;7375713;19;20493;-72
2023/07/06 10:33:38;;;;;;;7.20;3.72;;;22.90;99.90;;;;;;7376097;19;20022;-73
2023/07/06 10:36:11;;;;;;;8.73;3.55;;;23.30;99.90;;;;;;7374580;19;20063;-72
2023/07/06 10:38:38;;;;;;;6.85;2.90;;;23.30;99.90;;;;;;7372452;19;20476;-72
2023/07/06 10:41:10;;;;;;;6.65;3.08;;;22.90;99.90;;;;;;7378530;19;20022;-72
2023/07/06 10:43:40;;;;;;;8.43;3.58;;;22.60;99.90;;;;;;7374941;19;20026;-72
2023/07/06 10:46:26;;;;;;;5.95;2.75;;;22.70;99.90;;;;;;7378761;19;20042;-72
2023/07/06 10:48:57;;;;;;;8.65;3.30;;;23.50;99.90;;;;;;7378691;19;20014;-72
2023/07/06 10:51:25;;;;;;;6.65;2.42;;;23.40;99.90;;;;;;7377623;19;20022;-70
2023/07/06 10:54:19;;;;;;;5.60;1.98;;;23.30;99.90;;;;;;7370592;19;20018;-70
2023/07/06 10:57:00;;;;;;;8.05;2.63;;;22.90;99.80;;;;;;7374897;19;20744;-70
2023/07/06 10:59:37;;;;;;;3.97;2.00;;;22.50;99.90;;;;;;7372470;19;20860;-70
2023/07/06 11:02:22;;;;;;;8.50;2.95;;;23.20;99.70;;;;;;7371955;19;20290;-70
2023/07/06 11:05:19;;;;;;;7.63;2.38;;;23.20;98.60;;;;;;7371406;19;20022;-70
2023/07/06 11:07:52;;;;;;;5.05;2.10;;;23.00;95.90;;;;;;7380742;19;20073;-70
2023/07/06 11:10:39;;;;;;;5.45;2.40;;;22.80;94.60;;;;;;7380608;19;20031;-70
2023/07/06 11:13:05;;;;;;;7.13;2.78;;;23.80;96.60;;;;;;7379296;19;20018;-70
2023/07/06 11:15:56;;;;;;;5.72;2.28;;;24.50;96.80;;;;;;7380671;19;20039;-71
2023/07/06 11:18:37;;;;;;;5.57;1.80;;;24.50;93.20;;;;;;7381249;19;20033;-70
2023/07/06 11:21:39;;;;;;;6.03;2.40;;;24.00;93.50;;;;;;7381287;19;20023;-71
2023/07/06 11:24:08;;;;;;;8.43;2.20;;;23.80;92.70;;;;;;7380563;19;20015;-70
2023/07/06 11:26:55;;;;;;;7.85;2.40;;;23.90;93.00;;;;;;7378164;19;20054;-70
2023/07/06 11:29:28;;;;;;;6.10;2.47;;;23.30;90.00;;;;;;7378881;19;20033;-70
2023/07/06 11:32:09;;;;;;;5.55;2.17;;;23.10;95.50;;;;;;7383168;19;20022;-70
2023/07/06 11:34:50;;;;;;;8.18;2.67;;;23.00;94.70;;;;;;7378824;19;20018;-69
2023/07/06 11:37:30;;;;;;;7.97;5.53;;;22.80;95.70;;;;;;7378169;19;20082;-70
2023/07/06 11:40:15;;;;;;;10.65;7.72;;;22.90;97.40;;;;;;7379651;19;20018;-70
2023/07/06 11:43:02;;;;;;;7.93;5.07;;;22.90;97.40;;;;;;7383625;19;20433;-69
2023/07/06 11:46:05;;;;;;;7.97;3.95;;;23.60;96.50;;;;;;7390303;19;20935;-69
2023/07/06 11:48:54;;;;;;;9.63;5.82;;;23.20;95.00;;;;;;7384665;19;20022;-70
2023/07/06 11:51:22;;;;;;;6.90;2.30;;;22.90;95.30;;;;;;7381620;19;20638;-70
2023/07/06 11:56:35;;;;;;;8.07;5.05;;;23.20;93.50;;;;;;7384531;19;20041;-70
2023/07/06 11:59:07;;;;;;;13.35;11.38;;;23.60;94.40;;;;;;7375558;19;20031;-70
2023/07/06 12:01:46;;;;;;;5.57;2.72;;;24.20;93.90;;;;;;7379703;19;20010;-70
2023/07/06 12:04:18;;;;;;;7.03;4.70;;;25.00;93.20;;;;;;7376014;19;21010;-70
2023/07/06 12:06:45;;;;;;;8.60;4.30;;;25.50;83.40;;;;;;7378676;19;20090;-69
2023/07/06 12:09:22;;;;;;;4.38;2.22;;;25.80;78.90;;;;;;7381298;19;20026;-69
2023/07/06 12:12:15;;;;;;;3.83;1.73;;;25.70;74.70;;;;;;7375751;19;20024;-69
2023/07/06 12:14:42;;;;;;;7.93;2.17;;;25.50;72.20;;;;;;7380289;19;20059;-68
2023/07/06 12:17:11;;;;;;;6.10;2.17;;;25.30;76.30;;;;;;7386497;19;20033;-69
2023/07/06 12:19:41;;;;;;;4.60;1.80;;;25.40;74.00;;;;;;7382817;19;20140;-67
2023/07/06 12:22:18;;;;;;;4.93;1.50;;;25.10;67.60;;;;;;7394457;19;20033;-69
2023/07/06 12:24:52;;;;;;;4.80;2.00;;;25.50;70.00;;;;;;7397861;19;20011;-68
2023/07/06 12:27:19;;;;;;;3.92;2.00;;;25.50;68.80;;;;;;7378227;19;20075;-69
2023/07/06 12:29:45;;;;;;;6.68;2.63;;;25.20;70.70;;;;;;7380871;19;20021;-65
2023/07/06 12:32:19;;;;;;;11.63;8.13;;;24.70;72.70;;;;;;7383393;19;20034;-67
2023/07/06 12:34:54;;;;;;;6.72;2.92;;;24.00;74.00;;;;;;7395790;19;20017;-69
2023/07/06 12:37:23;;;;;;;8.27;3.58;;;23.50;71.80;;;;;;7378405;19;20022;-69
2023/07/06 12:39:50;;;;;;;4.57;2.30;;;23.10;74.50;;;;;;7384231;19;20059;-68
2023/07/06 12:42:19;;;;;;;5.15;2.30;;;22.90;76.40;;;;;;7400478;19;20461;-68
2023/07/06 12:44:50;;;;;;;5.75;3.05;;;22.70;78.50;;;;;;7387534;19;20030;-70
2023/07/06 12:47:40;;;;;;;4.90;2.20;;;22.50;80.70;;;;;;7384898;19;20014;-68
2023/07/06 12:50:25;;;;;;;6.85;3.10;;;22.10;82.70;;;;;;7391268;19;20019;-68
2023/07/06 12:53:14;;;;;;;8.07;2.70;;;21.90;88.90;;;;;;7397681;19;20018;-68
2023/07/06 12:55:42;;;;;;;5.55;2.33;;;21.90;93.60;;;;;;7394660;19;20039;-69
2023/07/06 12:58:26;;;;;;;6.50;2.13;;;22.00;94.80;;;;;;7385405;19;20028;-67
2023/07/06 13:01:09;;;;;;;7.60;3.05;;;22.00;94.90;;;;;;7373948;19;20656;-69
2023/07/06 13:03:47;;;;;;;6.45;3.65;;;22.00;94.50;;;;;;7376039;19;20776;-69